sensor_id;sensor_type;location;lat;lon;timestamp;P1;durP1;ratioP1;P2;durP2;ratioP2
61009;SDS011;46897;55.340;86.082;2023-05-10T11:17:28;22.10;;;11.60;;
61009;SDS011;46897;55.340;86.082;2023-05-10T11:20:07;9.85;;;2.63;;
61009;SDS011;46897;55.340;86.082;2023-05-10T11:22:50;8.75;;;4.30;;
61009;SDS011;46897;55.340;86.082;2023-05-10T11:25:50;6.70;;;2.63;;
61009;SDS011;46897;55.340;86.082;2023-05-10T11:28:45;11.45;;;2.60;;
61009;SDS011;46897;55.340;86.082;2023-05-10T11:34:46;8.18;;;3.05;;
61009;SDS011;46897;55.340;86.082;2023-05-10T11:37:28;8.95;;;3.17;;
61009;SDS011;46897;55.340;86.082;2023-05-10T11:40:01;13.25;;;3.67;;
61009;SDS011;46897;55.340;86.082;2023-05-10T11:42:56;9.48;;;3.10;;
61009;SDS011;46897;55.340;86.082;2023-05-10T11:46:45;12.93;;;3.40;;
61009;SDS011;46897;55.340;86.082;2023-05-10T11:48:51;12.32;;;3.30;;
61009;SDS011;46897;55.340;86.082;2023-05-10T11:51:29;16.42;;;3.88;;
61009;SDS011;46897;55.340;86.082;2023-05-10T11:54:10;13.23;;;3.05;;
61009;SDS011;46897;55.340;86.082;2023-05-10T11:56:47;11.43;;;2.97;;
61009;SDS011;46897;55.340;86.082;2023-05-10T11:59:21;6.72;;;2.60;;
61009;SDS011;46897;55.340;86.082;2023-05-10T12:01:53;7.28;;;2.67;;
61009;SDS011;46897;55.340;86.082;2023-05-10T12:04:43;8.73;;;2.60;;
61009;SDS011;46897;55.340;86.082;2023-05-10T12:07:27;9.88;;;2.65;;
61009;SDS011;46897;55.340;86.082;2023-05-10T12:10:05;9.20;;;2.45;;
61009;SDS011;46897;55.340;86.082;2023-05-10T12:12:56;4.35;;;2.30;;
61009;SDS011;46897;55.340;86.082;2023-05-10T12:15:31;12.50;;;2.50;;
61009;SDS011;46897;55.340;86.082;2023-05-10T12:18:09;6.63;;;2.30;;
61009;SDS011;46897;55.340;86.082;2023-05-10T12:21:02;10.07;;;2.70;;
61009;SDS011;46897;55.340;86.082;2023-05-10T12:23:40;9.85;;;3.03;;
61009;SDS011;46897;55.340;86.082;2023-05-10T12:26:38;8.80;;;2.65;;
61009;SDS011;46897;55.340;86.082;2023-05-10T12:29:12;14.43;;;3.60;;
61009;SDS011;46897;55.340;86.082;2023-05-10T12:34:46;10.63;;;3.08;;
61009;SDS011;46897;55.340;86.082;2023-05-10T12:37:18;27.92;;;7.75;;
61009;SDS011;46897;55.340;86.082;2023-05-10T12:50:25;10.55;;;2.80;;
61009;SDS011;46897;55.340;86.082;2023-05-10T12:52:57;6.53;;;3.20;;
61009;SDS011;46897;55.340;86.082;2023-05-10T12:55:29;5.60;;;2.97;;
61009;SDS011;46897;55.340;86.082;2023-05-10T12:57:58;10.85;;;2.75;;
61009;SDS011;46897;55.340;86.082;2023-05-10T13:03:07;10.77;;;3.10;;
61009;SDS011;46897;55.340;86.082;2023-05-10T13:05:39;13.93;;;4.55;;
61009;SDS011;46897;55.340;86.082;2023-05-10T13:08:10;8.35;;;3.63;;
61009;SDS011;46897;55.340;86.082;2023-05-10T13:10:41;12.93;;;2.90;;
61009;SDS011;46897;55.340;86.082;2023-05-10T13:13:13;9.20;;;3.40;;
61009;SDS011;46897;55.340;86.082;2023-05-10T13:15:43;8.95;;;2.70;;
61009;SDS011;46897;55.340;86.082;2023-05-10T13:18:31;9.93;;;2.88;;
61009;SDS011;46897;55.340;86.082;2023-05-10T13:21:03;11.50;;;2.90;;
61009;SDS011;46897;55.340;86.082;2023-05-10T13:23:34;7.65;;;2.83;;
61009;SDS011;46897;55.340;86.082;2023-05-10T13:26:07;8.93;;;3.30;;
61009;SDS011;46897;55.340;86.082;2023-05-10T13:28:44;13.32;;;5.30;;
61009;SDS011;46897;55.340;86.082;2023-05-10T13:31:31;10.13;;;3.20;;
61009;SDS011;46897;55.340;86.082;2023-05-10T13:34:02;12.95;;;2.75;;
61009;SDS011;46897;55.340;86.082;2023-05-10T13:36:49;7.72;;;3.90;;
61009;SDS011;46897;55.340;86.082;2023-05-10T13:39:20;13.25;;;4.07;;
61009;SDS011;46897;55.340;86.082;2023-05-10T13:44:40;11.60;;;5.10;;
61009;SDS011;46897;55.340;86.082;2023-05-10T13:50:17;14.05;;;6.25;;
61009;SDS011;46897;55.340;86.082;2023-05-10T13:52:46;22.40;;;7.20;;
61009;SDS011;46897;55.340;86.082;2023-05-10T13:55:18;15.90;;;5.93;;
61009;SDS011;46897;55.340;86.082;2023-05-10T13:57:48;16.60;;;5.60;;
61009;SDS011;46897;55.340;86.082;2023-05-10T14:00:18;11.82;;;4.47;;
61009;SDS011;46897;55.340;86.082;2023-05-10T14:02:48;14.20;;;5.03;;
61009;SDS011;46897;55.340;86.082;2023-05-10T14:05:21;15.52;;;6.82;;
61009;SDS011;46897;55.340;86.082;2023-05-10T14:07:52;20.13;;;7.28;;
61009;SDS011;46897;55.340;86.082;2023-05-10T14:10:38;20.80;;;7.47;;
61009;SDS011;46897;55.340;86.082;2023-05-10T14:13:09;21.00;;;7.57;;
61009;SDS011;46897;55.340;86.082;2023-05-10T14:15:57;21.92;;;7.25;;
61009;SDS011;46897;55.340;86.082;2023-05-10T14:18:44;19.88;;;7.53;;
61009;SDS011;46897;55.340;86.082;2023-05-10T14:21:15;27.65;;;7.65;;
61009;SDS011;46897;55.340;86.082;2023-05-10T14:23:44;21.48;;;7.60;;
61009;SDS011;46897;55.340;86.082;2023-05-10T14:26:14;17.48;;;7.43;;
61009;SDS011;46897;55.340;86.082;2023-05-10T14:29:00;24.73;;;7.40;;
61009;SDS011;46897;55.340;86.082;2023-05-10T14:31:29;19.38;;;7.38;;
61009;SDS011;46897;55.340;86.082;2023-05-10T14:34:05;21.40;;;7.15;;
61009;SDS011;46897;55.340;86.082;2023-05-10T14:36:37;19.67;;;6.50;;
61009;SDS011;46897;55.340;86.082;2023-05-10T14:39:12;20.83;;;7.60;;
61009;SDS011;46897;55.340;86.082;2023-05-10T14:42:07;22.75;;;7.13;;
61009;SDS011;46897;55.340;86.082;2023-05-10T14:44:36;18.98;;;6.97;;
61009;SDS011;46897;55.340;86.082;2023-05-10T14:49:54;29.55;;;11.43;;
61009;SDS011;46897;55.340;86.082;2023-05-10T14:52:26;24.63;;;8.65;;
61009;SDS011;46897;55.340;86.082;2023-05-10T14:54:59;27.42;;;8.02;;
61009;SDS011;46897;55.340;86.082;2023-05-10T15:00:50;31.90;;;8.65;;
61009;SDS011;46897;55.340;86.082;2023-05-10T15:03:20;29.00;;;8.55;;
61009;SDS011;46897;55.340;86.082;2023-05-10T15:05:52;31.90;;;8.70;;
61009;SDS011;46897;55.340;86.082;2023-05-10T15:08:24;40.92;;;10.18;;
61009;SDS011;46897;55.340;86.082;2023-05-10T15:10:56;30.15;;;9.65;;
61009;SDS011;46897;55.340;86.082;2023-05-10T15:13:25;34.78;;;12.18;;
61009;SDS011;46897;55.340;86.082;2023-05-10T15:15:56;37.25;;;13.00;;
61009;SDS011;46897;55.340;86.082;2023-05-10T15:18:26;44.40;;;13.77;;
61009;SDS011;46897;55.340;86.082;2023-05-10T15:20:55;43.28;;;14.32;;
61009;SDS011;46897;55.340;86.082;2023-05-10T15:26:14;67.03;;;22.48;;
61009;SDS011;46897;55.340;86.082;2023-05-10T15:28:44;100.03;;;32.22;;
61009;SDS011;46897;55.340;86.082;2023-05-10T15:31:30;81.80;;;29.23;;
61009;SDS011;46897;55.340;86.082;2023-05-10T15:34:02;97.85;;;32.40;;
61009;SDS011;46897;55.340;86.082;2023-05-10T15:36:33;119.22;;;43.08;;
61009;SDS011;46897;55.340;86.082;2023-05-10T15:39:21;177.77;;;50.17;;
61009;SDS011;46897;55.340;86.082;2023-05-10T15:41:51;186.32;;;64.00;;
61009;SDS011;46897;55.340;86.082;2023-05-10T15:44:20;261.23;;;94.57;;
61009;SDS011;46897;55.340;86.082;2023-05-10T15:46:51;374.52;;;140.68;;
61009;SDS011;46897;55.340;86.082;2023-05-10T15:49:21;393.20;;;147.95;;
61009;SDS011;46897;55.340;86.082;2023-05-10T15:52:08;402.77;;;152.82;;
61009;SDS011;46897;55.340;86.082;2023-05-10T15:54:40;364.98;;;135.50;;
61009;SDS011;46897;55.340;86.082;2023-05-10T15:57:27;301.40;;;108.72;;
61009;SDS011;46897;55.340;86.082;2023-05-10T15:59:57;236.65;;;90.05;;
61009;SDS011;46897;55.340;86.082;2023-05-10T16:02:26;244.75;;;93.00;;
61009;SDS011;46897;55.340;86.082;2023-05-10T16:04:57;242.52;;;90.65;;
61009;SDS011;46897;55.340;86.082;2023-05-10T16:07:27;218.88;;;80.50;;
61009;SDS011;46897;55.340;86.082;2023-05-10T16:09:58;209.23;;;78.75;;
61009;SDS011;46897;55.340;86.082;2023-05-10T16:15:17;166.70;;;63.67;;
61009;SDS011;46897;55.340;86.082;2023-05-10T16:17:47;175.20;;;63.90;;
61009;SDS011;46897;55.340;86.082;2023-05-10T16:20:17;184.35;;;64.90;;
61009;SDS011;46897;55.340;86.082;2023-05-10T16:22:47;183.48;;;69.32;;
61009;SDS011;46897;55.340;86.082;2023-05-10T16:25:18;199.35;;;71.18;;
61009;SDS011;46897;55.340;86.082;2023-05-10T16:27:47;177.15;;;61.55;;
61009;SDS011;46897;55.340;86.082;2023-05-10T16:30:17;154.82;;;56.92;;
61009;SDS011;46897;55.340;86.082;2023-05-10T16:32:49;170.20;;;57.05;;
61009;SDS011;46897;55.340;86.082;2023-05-10T16:35:19;158.50;;;55.38;;
61009;SDS011;46897;55.340;86.082;2023-05-10T16:37:49;135.35;;;52.05;;
61009;SDS011;46897;55.340;86.082;2023-05-10T16:40:20;144.98;;;51.75;;
61009;SDS011;46897;55.340;86.082;2023-05-10T16:42:50;143.65;;;50.28;;
61009;SDS011;46897;55.340;86.082;2023-05-10T16:45:36;151.98;;;50.40;;
61009;SDS011;46897;55.340;86.082;2023-05-10T16:48:06;174.98;;;57.38;;
61009;SDS011;46897;55.340;86.082;2023-05-10T16:50:35;219.00;;;65.28;;
61009;SDS011;46897;55.340;86.082;2023-05-10T16:53:05;218.98;;;61.13;;
61009;SDS011;46897;55.340;86.082;2023-05-10T16:58:24;196.88;;;57.33;;
61009;SDS011;46897;55.340;86.082;2023-05-10T17:01:11;190.98;;;56.90;;
61009;SDS011;46897;55.340;86.082;2023-05-10T17:06:28;150.27;;;47.25;;
61009;SDS011;46897;55.340;86.082;2023-05-10T17:08:58;118.45;;;40.15;;
61009;SDS011;46897;55.340;86.082;2023-05-10T17:14:16;106.03;;;37.60;;
61009;SDS011;46897;55.340;86.082;2023-05-10T17:16:46;111.20;;;39.13;;
61009;SDS011;46897;55.340;86.082;2023-05-10T17:19:18;104.32;;;37.67;;
61009;SDS011;46897;55.340;86.082;2023-05-10T17:21:51;108.55;;;38.53;;
61009;SDS011;46897;55.340;86.082;2023-05-10T17:24:21;90.55;;;36.50;;
61009;SDS011;46897;55.340;86.082;2023-05-10T17:26:52;98.82;;;35.80;;
61009;SDS011;46897;55.340;86.082;2023-05-10T17:29:38;96.10;;;35.75;;
61009;SDS011;46897;55.340;86.082;2023-05-10T17:32:08;84.45;;;33.90;;
61009;SDS011;46897;55.340;86.082;2023-05-10T17:34:37;88.20;;;35.05;;
61009;SDS011;46897;55.340;86.082;2023-05-10T17:37:07;91.15;;;36.03;;
61009;SDS011;46897;55.340;86.082;2023-05-10T17:39:37;93.65;;;34.00;;
61009;SDS011;46897;55.340;86.082;2023-05-10T17:42:08;101.40;;;36.15;;
61009;SDS011;46897;55.340;86.082;2023-05-10T17:44:38;103.35;;;39.60;;
61009;SDS011;46897;55.340;86.082;2023-05-10T17:47:07;105.20;;;37.55;;
61009;SDS011;46897;55.340;86.082;2023-05-10T17:49:54;93.88;;;34.85;;
61009;SDS011;46897;55.340;86.082;2023-05-10T17:52:23;96.40;;;37.05;;
61009;SDS011;46897;55.340;86.082;2023-05-10T17:54:53;95.53;;;34.85;;
61009;SDS011;46897;55.340;86.082;2023-05-10T17:57:41;102.30;;;35.95;;
61009;SDS011;46897;55.340;86.082;2023-05-10T18:00:11;92.60;;;34.47;;
61009;SDS011;46897;55.340;86.082;2023-05-10T18:02:41;89.30;;;33.58;;
61009;SDS011;46897;55.340;86.082;2023-05-10T18:05:11;89.72;;;33.80;;
61009;SDS011;46897;55.340;86.082;2023-05-10T18:08:02;89.63;;;33.30;;
61009;SDS011;46897;55.340;86.082;2023-05-10T18:10:32;85.82;;;31.15;;
61009;SDS011;46897;55.340;86.082;2023-05-10T18:13:02;76.63;;;29.17;;
61009;SDS011;46897;55.340;86.082;2023-05-10T18:15:34;76.65;;;26.95;;
61009;SDS011;46897;55.340;86.082;2023-05-10T18:18:03;68.63;;;26.38;;
61009;SDS011;46897;55.340;86.082;2023-05-10T18:20:33;61.85;;;24.38;;
61009;SDS011;46897;55.340;86.082;2023-05-10T18:23:03;61.88;;;22.85;;
61009;SDS011;46897;55.340;86.082;2023-05-10T18:25:50;62.95;;;23.58;;
61009;SDS011;46897;55.340;86.082;2023-05-10T18:28:21;64.13;;;22.85;;
61009;SDS011;46897;55.340;86.082;2023-05-10T18:30:51;59.60;;;21.65;;
61009;SDS011;46897;55.340;86.082;2023-05-10T18:33:21;59.42;;;22.58;;
61009;SDS011;46897;55.340;86.082;2023-05-10T18:35:51;58.63;;;21.83;;
61009;SDS011;46897;55.340;86.082;2023-05-10T18:38:20;62.10;;;22.45;;
61009;SDS011;46897;55.340;86.082;2023-05-10T18:40:50;61.55;;;21.55;;
61009;SDS011;46897;55.340;86.082;2023-05-10T18:43:22;55.90;;;20.77;;
61009;SDS011;46897;55.340;86.082;2023-05-10T18:45:52;59.13;;;22.52;;
61009;SDS011;46897;55.340;86.082;2023-05-10T18:48:21;57.08;;;21.63;;
61009;SDS011;46897;55.340;86.082;2023-05-10T18:50:50;68.60;;;23.88;;
61009;SDS011;46897;55.340;86.082;2023-05-10T18:56:26;62.67;;;23.50;;
61009;SDS011;46897;55.340;86.082;2023-05-10T19:04:32;71.13;;;24.20;;
61009;SDS011;46897;55.340;86.082;2023-05-10T19:07:02;62.60;;;24.05;;
61009;SDS011;46897;55.340;86.082;2023-05-10T19:09:31;65.57;;;25.27;;
61009;SDS011;46897;55.340;86.082;2023-05-10T19:14:50;61.92;;;23.10;;
61009;SDS011;46897;55.340;86.082;2023-05-10T19:17:19;55.60;;;20.55;;
61009;SDS011;46897;55.340;86.082;2023-05-10T19:20:06;58.38;;;21.40;;
61009;SDS011;46897;55.340;86.082;2023-05-10T19:22:36;50.63;;;19.50;;
61009;SDS011;46897;55.340;86.082;2023-05-10T19:25:35;52.38;;;19.42;;
61009;SDS011;46897;55.340;86.082;2023-05-10T19:28:05;49.30;;;18.95;;
61009;SDS011;46897;55.340;86.082;2023-05-10T19:30:53;50.42;;;18.92;;
61009;SDS011;46897;55.340;86.082;2023-05-10T19:33:22;53.17;;;19.00;;
61009;SDS011;46897;55.340;86.082;2023-05-10T19:35:52;51.38;;;19.83;;
61009;SDS011;46897;55.340;86.082;2023-05-10T19:41:27;47.75;;;18.77;;
61009;SDS011;46897;55.340;86.082;2023-05-10T19:43:56;51.53;;;19.85;;
61009;SDS011;46897;55.340;86.082;2023-05-10T19:46:45;45.35;;;17.70;;
61009;SDS011;46897;55.340;86.082;2023-05-10T19:49:15;43.55;;;18.30;;
61009;SDS011;46897;55.340;86.082;2023-05-10T19:51:44;45.15;;;17.73;;
61009;SDS011;46897;55.340;86.082;2023-05-10T19:57:01;59.08;;;18.20;;
61009;SDS011;46897;55.340;86.082;2023-05-10T19:59:31;47.42;;;16.58;;
61009;SDS011;46897;55.340;86.082;2023-05-10T20:05:07;42.08;;;16.30;;
61009;SDS011;46897;55.340;86.082;2023-05-10T20:07:36;43.70;;;15.90;;
61009;SDS011;46897;55.340;86.082;2023-05-10T20:10:24;40.40;;;15.65;;
61009;SDS011;46897;55.340;86.082;2023-05-10T20:12:53;42.33;;;15.35;;
61009;SDS011;46897;55.340;86.082;2023-05-10T20:15:40;39.15;;;14.85;;
61009;SDS011;46897;55.340;86.082;2023-05-10T20:18:28;37.85;;;15.43;;
61009;SDS011;46897;55.340;86.082;2023-05-10T20:20:58;41.15;;;14.95;;
61009;SDS011;46897;55.340;86.082;2023-05-10T20:26:33;36.20;;;14.45;;
61009;SDS011;46897;55.340;86.082;2023-05-10T20:29:02;44.97;;;15.70;;
61009;SDS011;46897;55.340;86.082;2023-05-10T20:34:37;38.85;;;14.40;;
61009;SDS011;46897;55.340;86.082;2023-05-10T20:37:25;41.28;;;14.38;;
61009;SDS011;46897;55.340;86.082;2023-05-10T20:39:54;44.78;;;14.90;;
61009;SDS011;46897;55.340;86.082;2023-05-10T20:42:24;39.67;;;14.73;;
61009;SDS011;46897;55.340;86.082;2023-05-10T20:44:53;45.33;;;15.40;;
61009;SDS011;46897;55.340;86.082;2023-05-10T20:47:41;41.60;;;14.57;;
61009;SDS011;46897;55.340;86.082;2023-05-10T20:50:11;38.15;;;13.90;;
61009;SDS011;46897;55.340;86.082;2023-05-10T20:52:41;39.92;;;14.07;;
61009;SDS011;46897;55.340;86.082;2023-05-10T20:55:10;35.05;;;14.77;;
61009;SDS011;46897;55.340;86.082;2023-05-10T20:57:41;38.42;;;15.20;;
61009;SDS011;46897;55.340;86.082;2023-05-10T21:00:11;37.33;;;14.27;;
61009;SDS011;46897;55.340;86.082;2023-05-10T21:02:47;33.28;;;13.57;;
61009;SDS011;46897;55.340;86.082;2023-05-10T21:05:28;41.55;;;14.23;;
61009;SDS011;46897;55.340;86.082;2023-05-10T21:13:33;36.63;;;13.50;;
61009;SDS011;46897;55.340;86.082;2023-05-10T21:16:03;28.20;;;13.02;;
61009;SDS011;46897;55.340;86.082;2023-05-10T21:18:50;40.05;;;14.13;;
61009;SDS011;46897;55.340;86.082;2023-05-10T21:21:20;32.88;;;12.77;;
61009;SDS011;46897;55.340;86.082;2023-05-10T21:23:50;31.88;;;13.15;;
61009;SDS011;46897;55.340;86.082;2023-05-10T21:26:19;33.80;;;12.60;;
61009;SDS011;46897;55.340;86.082;2023-05-10T21:31:36;27.45;;;12.20;;
61009;SDS011;46897;55.340;86.082;2023-05-10T21:34:05;33.67;;;13.38;;
61009;SDS011;46897;55.340;86.082;2023-05-10T21:36:37;36.60;;;14.10;;
61009;SDS011;46897;55.340;86.082;2023-05-10T21:39:06;36.65;;;12.80;;
61009;SDS011;46897;55.340;86.082;2023-05-10T21:41:36;31.85;;;12.90;;
61009;SDS011;46897;55.340;86.082;2023-05-10T21:44:05;30.33;;;12.10;;
61009;SDS011;46897;55.340;86.082;2023-05-10T21:46:34;33.85;;;12.43;;
61009;SDS011;46897;55.340;86.082;2023-05-10T21:49:04;33.55;;;12.50;;
61009;SDS011;46897;55.340;86.082;2023-05-10T21:51:35;33.45;;;12.93;;
61009;SDS011;46897;55.340;86.082;2023-05-10T21:54:05;38.80;;;13.70;;
61009;SDS011;46897;55.340;86.082;2023-05-10T21:56:34;39.30;;;12.77;;
61009;SDS011;46897;55.340;86.082;2023-05-10T21:59:04;40.95;;;13.18;;
61009;SDS011;46897;55.340;86.082;2023-05-10T22:01:33;31.95;;;12.75;;
61009;SDS011;46897;55.340;86.082;2023-05-10T22:04:02;35.42;;;14.23;;
61009;SDS011;46897;55.340;86.082;2023-05-10T22:06:32;38.83;;;13.05;;
61009;SDS011;46897;55.340;86.082;2023-05-10T22:09:03;37.30;;;14.07;;
61009;SDS011;46897;55.340;86.082;2023-05-10T22:11:32;60.58;;;17.40;;
61009;SDS011;46897;55.340;86.082;2023-05-10T22:14:01;54.85;;;16.10;;
61009;SDS011;46897;55.340;86.082;2023-05-10T22:16:31;63.13;;;18.38;;
61009;SDS011;46897;55.340;86.082;2023-05-10T22:19:00;70.75;;;19.65;;
61009;SDS011;46897;55.340;86.082;2023-05-10T22:21:30;103.80;;;23.42;;
61009;SDS011;46897;55.340;86.082;2023-05-10T22:23:59;68.13;;;18.83;;
61009;SDS011;46897;55.340;86.082;2023-05-10T22:29:34;56.72;;;16.65;;
61009;SDS011;46897;55.340;86.082;2023-05-10T22:32:04;73.28;;;20.23;;
61009;SDS011;46897;55.340;86.082;2023-05-10T22:34:33;75.45;;;22.20;;
61009;SDS011;46897;55.340;86.082;2023-05-10T22:39:50;68.72;;;21.27;;
61009;SDS011;46897;55.340;86.082;2023-05-10T22:42:21;53.80;;;17.73;;
61009;SDS011;46897;55.340;86.082;2023-05-10T22:44:50;54.00;;;16.60;;
61009;SDS011;46897;55.340;86.082;2023-05-10T22:47:19;48.70;;;15.57;;
61009;SDS011;46897;55.340;86.082;2023-05-10T22:49:48;43.90;;;14.95;;
61009;SDS011;46897;55.340;86.082;2023-05-10T22:52:18;36.28;;;13.27;;
61009;SDS011;46897;55.340;86.082;2023-05-10T22:54:47;36.90;;;12.48;;
61009;SDS011;46897;55.340;86.082;2023-05-10T22:57:36;38.08;;;12.75;;
61009;SDS011;46897;55.340;86.082;2023-05-10T23:00:07;41.28;;;12.88;;
61009;SDS011;46897;55.340;86.082;2023-05-10T23:05:24;37.15;;;12.95;;
61009;SDS011;46897;55.340;86.082;2023-05-10T23:08:12;37.05;;;12.80;;
61009;SDS011;46897;55.340;86.082;2023-05-10T23:10:41;46.80;;;12.63;;
61009;SDS011;46897;55.340;86.082;2023-05-10T23:13:30;35.92;;;11.20;;
61009;SDS011;46897;55.340;86.082;2023-05-10T23:18:47;33.63;;;11.30;;
61009;SDS011;46897;55.340;86.082;2023-05-10T23:21:52;29.27;;;11.32;;
61009;SDS011;46897;55.340;86.082;2023-05-10T23:27:09;39.35;;;12.48;;
61009;SDS011;46897;55.340;86.082;2023-05-10T23:29:57;41.15;;;13.07;;
61009;SDS011;46897;55.340;86.082;2023-05-10T23:32:26;44.58;;;13.57;;
61009;SDS011;46897;55.340;86.082;2023-05-10T23:35:13;48.63;;;13.98;;
61009;SDS011;46897;55.340;86.082;2023-05-10T23:37:59;44.42;;;14.25;;
61009;SDS011;46897;55.340;86.082;2023-05-10T23:40:28;48.33;;;14.68;;
61009;SDS011;46897;55.340;86.082;2023-05-10T23:42:57;42.38;;;14.07;;
61009;SDS011;46897;55.340;86.082;2023-05-10T23:45:28;40.05;;;14.00;;
61009;SDS011;46897;55.340;86.082;2023-05-10T23:47:57;52.55;;;16.45;;
61009;SDS011;46897;55.340;86.082;2023-05-10T23:53:14;49.72;;;17.40;;
61009;SDS011;46897;55.340;86.082;2023-05-10T23:55:44;59.50;;;17.73;;
61009;SDS011;46897;55.340;86.082;2023-05-10T23:58:13;50.13;;;15.57;;
